sensor_id;sensor_type;location;lat;lon;timestamp;P1;durP1;ratioP1;P2;durP2;ratioP2
32242;SDS011;18731;42.830;24.390;2022-07-29T03:01:04;16.98;;;9.23;;
32242;SDS011;18731;42.830;24.390;2022-07-29T03:03:45;16.08;;;9.75;;
32242;SDS011;18731;42.830;24.390;2022-07-29T03:06:13;18.67;;;9.68;;
32242;SDS011;18731;42.830;24.390;2022-07-29T03:08:42;15.90;;;9.60;;
32242;SDS011;18731;42.830;24.390;2022-07-29T03:11:09;15.48;;;9.40;;
32242;SDS011;18731;42.830;24.390;2022-07-29T03:13:36;13.88;;;9.40;;
32242;SDS011;18731;42.830;24.390;2022-07-29T03:16:03;18.40;;;9.45;;
32242;SDS011;18731;42.830;24.390;2022-07-29T03:18:30;29.83;;;10.25;;
32242;SDS011;18731;42.830;24.390;2022-07-29T03:20:56;15.85;;;9.20;;
32242;SDS011;18731;42.830;24.390;2022-07-29T03:23:23;15.32;;;9.70;;
32242;SDS011;18731;42.830;24.390;2022-07-29T03:25:51;19.52;;;9.60;;
32242;SDS011;18731;42.830;24.390;2022-07-29T03:28:17;21.58;;;10.35;;
32242;SDS011;18731;42.830;24.390;2022-07-29T03:30:43;16.10;;;9.18;;
32242;SDS011;18731;42.830;24.390;2022-07-29T03:33:09;18.02;;;9.25;;
32242;SDS011;18731;42.830;24.390;2022-07-29T03:35:35;27.17;;;10.75;;
32242;SDS011;18731;42.830;24.390;2022-07-29T03:38:01;19.70;;;9.65;;
32242;SDS011;18731;42.830;24.390;2022-07-29T03:40:49;15.38;;;8.75;;
32242;SDS011;18731;42.830;24.390;2022-07-29T03:43:22;20.98;;;9.32;;
32242;SDS011;18731;42.830;24.390;2022-07-29T03:45:53;19.92;;;10.27;;
32242;SDS011;18731;42.830;24.390;2022-07-29T03:48:21;16.17;;;10.02;;
32242;SDS011;18731;42.830;24.390;2022-07-29T03:50:51;15.52;;;10.23;;
32242;SDS011;18731;42.830;24.390;2022-07-29T03:53:20;14.15;;;9.77;;
32242;SDS011;18731;42.830;24.390;2022-07-29T03:55:47;15.45;;;8.77;;
32242;SDS011;18731;42.830;24.390;2022-07-29T03:58:16;15.00;;;9.23;;
32242;SDS011;18731;42.830;24.390;2022-07-29T04:00:46;19.67;;;10.02;;
32242;SDS011;18731;42.830;24.390;2022-07-29T04:03:12;12.57;;;9.10;;
32242;SDS011;18731;42.830;24.390;2022-07-29T04:05:38;17.58;;;9.95;;
32242;SDS011;18731;42.830;24.390;2022-07-29T04:08:04;14.70;;;9.80;;
32242;SDS011;18731;42.830;24.390;2022-07-29T04:10:30;21.77;;;14.90;;
32242;SDS011;18731;42.830;24.390;2022-07-29T04:12:59;16.77;;;10.57;;
32242;SDS011;18731;42.830;24.390;2022-07-29T04:15:25;14.40;;;9.57;;
32242;SDS011;18731;42.830;24.390;2022-07-29T04:17:56;13.68;;;9.43;;
32242;SDS011;18731;42.830;24.390;2022-07-29T04:20:22;15.75;;;9.48;;
32242;SDS011;18731;42.830;24.390;2022-07-29T04:22:48;16.23;;;8.93;;
32242;SDS011;18731;42.830;24.390;2022-07-29T04:25:14;12.27;;;8.57;;
32242;SDS011;18731;42.830;24.390;2022-07-29T04:27:39;16.75;;;8.90;;
32242;SDS011;18731;42.830;24.390;2022-07-29T04:30:28;14.55;;;8.82;;
32242;SDS011;18731;42.830;24.390;2022-07-29T04:32:55;13.73;;;9.18;;
32242;SDS011;18731;42.830;24.390;2022-07-29T04:35:24;14.82;;;9.20;;
32242;SDS011;18731;42.830;24.390;2022-07-29T04:37:50;19.40;;;9.05;;
32242;SDS011;18731;42.830;24.390;2022-07-29T04:40:16;15.80;;;9.27;;
32242;SDS011;18731;42.830;24.390;2022-07-29T04:42:41;13.05;;;8.48;;
32242;SDS011;18731;42.830;24.390;2022-07-29T04:45:07;12.32;;;8.40;;
32242;SDS011;18731;42.830;24.390;2022-07-29T04:47:33;12.50;;;8.77;;
32242;SDS011;18731;42.830;24.390;2022-07-29T04:49:59;15.10;;;9.02;;
32242;SDS011;18731;42.830;24.390;2022-07-29T04:52:25;13.35;;;8.75;;
32242;SDS011;18731;42.830;24.390;2022-07-29T04:54:51;13.40;;;9.63;;
32242;SDS011;18731;42.830;24.390;2022-07-29T04:57:17;20.08;;;9.32;;
32242;SDS011;18731;42.830;24.390;2022-07-29T04:59:43;12.00;;;8.23;;
32242;SDS011;18731;42.830;24.390;2022-07-29T05:02:12;13.65;;;9.15;;
32242;SDS011;18731;42.830;24.390;2022-07-29T05:04:39;13.82;;;8.30;;
32242;SDS011;18731;42.830;24.390;2022-07-29T05:10:12;17.05;;;10.48;;
32242;SDS011;18731;42.830;24.390;2022-07-29T05:12:47;15.63;;;10.10;;
32242;SDS011;18731;42.830;24.390;2022-07-29T05:15:19;15.40;;;10.18;;
32242;SDS011;18731;42.830;24.390;2022-07-29T05:17:45;19.33;;;10.57;;
32242;SDS011;18731;42.830;24.390;2022-07-29T05:20:10;15.07;;;9.55;;
32242;SDS011;18731;42.830;24.390;2022-07-29T05:22:36;14.32;;;9.60;;
32242;SDS011;18731;42.830;24.390;2022-07-29T05:25:02;13.35;;;9.40;;
32242;SDS011;18731;42.830;24.390;2022-07-29T05:27:28;16.65;;;10.02;;
32242;SDS011;18731;42.830;24.390;2022-07-29T05:29:54;16.20;;;9.52;;
32242;SDS011;18731;42.830;24.390;2022-07-29T05:32:20;14.30;;;9.48;;
32242;SDS011;18731;42.830;24.390;2022-07-29T05:34:45;17.70;;;9.75;;
32242;SDS011;18731;42.830;24.390;2022-07-29T05:37:11;16.92;;;9.30;;
32242;SDS011;18731;42.830;24.390;2022-07-29T05:39:38;13.80;;;8.77;;
32242;SDS011;18731;42.830;24.390;2022-07-29T05:42:08;15.25;;;9.45;;
32242;SDS011;18731;42.830;24.390;2022-07-29T05:44:38;15.75;;;10.57;;
32242;SDS011;18731;42.830;24.390;2022-07-29T05:47:07;19.15;;;10.63;;
32242;SDS011;18731;42.830;24.390;2022-07-29T05:49:32;13.55;;;9.00;;
32242;SDS011;18731;42.830;24.390;2022-07-29T05:51:58;18.77;;;8.57;;
32242;SDS011;18731;42.830;24.390;2022-07-29T05:54:24;12.45;;;8.85;;
32242;SDS011;18731;42.830;24.390;2022-07-29T05:56:52;13.05;;;9.18;;
32242;SDS011;18731;42.830;24.390;2022-07-29T05:59:20;13.52;;;9.18;;
32242;SDS011;18731;42.830;24.390;2022-07-29T06:01:46;24.00;;;10.68;;
32242;SDS011;18731;42.830;24.390;2022-07-29T06:04:12;19.08;;;10.20;;
32242;SDS011;18731;42.830;24.390;2022-07-29T06:06:38;12.93;;;9.50;;
32242;SDS011;18731;42.830;24.390;2022-07-29T06:09:06;11.40;;;8.88;;
32242;SDS011;18731;42.830;24.390;2022-07-29T06:11:35;18.25;;;10.13;;
32242;SDS011;18731;42.830;24.390;2022-07-29T06:14:04;18.70;;;10.15;;
32242;SDS011;18731;42.830;24.390;2022-07-29T06:16:29;14.50;;;10.40;;
32242;SDS011;18731;42.830;24.390;2022-07-29T06:18:55;21.00;;;9.93;;
32242;SDS011;18731;42.830;24.390;2022-07-29T06:21:21;13.13;;;9.27;;
32242;SDS011;18731;42.830;24.390;2022-07-29T06:23:46;16.35;;;9.30;;
32242;SDS011;18731;42.830;24.390;2022-07-29T06:26:12;13.73;;;8.70;;
32242;SDS011;18731;42.830;24.390;2022-07-29T06:28:42;19.98;;;8.57;;
32242;SDS011;18731;42.830;24.390;2022-07-29T06:31:07;14.93;;;8.65;;
32242;SDS011;18731;42.830;24.390;2022-07-29T06:33:34;13.23;;;8.55;;
32242;SDS011;18731;42.830;24.390;2022-07-29T06:35:59;16.30;;;9.00;;
32242;SDS011;18731;42.830;24.390;2022-07-29T06:38:25;17.65;;;9.98;;
32242;SDS011;18731;42.830;24.390;2022-07-29T06:40:51;13.43;;;9.10;;
32242;SDS011;18731;42.830;24.390;2022-07-29T06:43:29;19.17;;;9.13;;
32242;SDS011;18731;42.830;24.390;2022-07-29T06:46:10;18.92;;;9.68;;
32242;SDS011;18731;42.830;24.390;2022-07-29T06:48:37;16.70;;;9.15;;
32242;SDS011;18731;42.830;24.390;2022-07-29T06:51:08;13.77;;;9.18;;
32242;SDS011;18731;42.830;24.390;2022-07-29T06:53:44;13.80;;;8.90;;
32242;SDS011;18731;42.830;24.390;2022-07-29T06:56:13;15.68;;;9.25;;
32242;SDS011;18731;42.830;24.390;2022-07-29T06:58:39;13.57;;;8.30;;
32242;SDS011;18731;42.830;24.390;2022-07-29T07:01:06;11.68;;;8.90;;
32242;SDS011;18731;42.830;24.390;2022-07-29T07:03:35;14.45;;;8.00;;
32242;SDS011;18731;42.830;24.390;2022-07-29T07:06:01;14.13;;;8.27;;
32242;SDS011;18731;42.830;24.390;2022-07-29T07:08:26;10.65;;;8.05;;
32242;SDS011;18731;42.830;24.390;2022-07-29T07:10:53;12.60;;;8.25;;
32242;SDS011;18731;42.830;24.390;2022-07-29T07:13:22;10.93;;;7.47;;
32242;SDS011;18731;42.830;24.390;2022-07-29T07:15:50;12.63;;;8.77;;
32242;SDS011;18731;42.830;24.390;2022-07-29T07:18:19;13.05;;;7.85;;
32242;SDS011;18731;42.830;24.390;2022-07-29T07:20:45;14.07;;;7.85;;
32242;SDS011;18731;42.830;24.390;2022-07-29T07:23:11;14.40;;;8.65;;
32242;SDS011;18731;42.830;24.390;2022-07-29T07:25:37;12.55;;;8.43;;
32242;SDS011;18731;42.830;24.390;2022-07-29T07:28:02;9.20;;;8.27;;
32242;SDS011;18731;42.830;24.390;2022-07-29T07:30:28;9.80;;;7.38;;
32242;SDS011;18731;42.830;24.390;2022-07-29T07:32:54;12.85;;;7.88;;
32242;SDS011;18731;42.830;24.390;2022-07-29T07:35:23;11.63;;;8.25;;
32242;SDS011;18731;42.830;24.390;2022-07-29T07:37:49;10.77;;;7.80;;
32242;SDS011;18731;42.830;24.390;2022-07-29T07:40:19;11.40;;;7.80;;
32242;SDS011;18731;42.830;24.390;2022-07-29T07:42:44;13.00;;;7.95;;
32242;SDS011;18731;42.830;24.390;2022-07-29T07:45:10;13.15;;;7.53;;
32242;SDS011;18731;42.830;24.390;2022-07-29T07:47:37;13.02;;;7.93;;
32242;SDS011;18731;42.830;24.390;2022-07-29T07:50:05;10.80;;;8.02;;
32242;SDS011;18731;42.830;24.390;2022-07-29T07:52:32;8.60;;;7.43;;
32242;SDS011;18731;42.830;24.390;2022-07-29T07:54:58;11.00;;;7.85;;
32242;SDS011;18731;42.830;24.390;2022-07-29T07:57:24;14.25;;;7.90;;
32242;SDS011;18731;42.830;24.390;2022-07-29T07:59:51;10.15;;;7.60;;
32242;SDS011;18731;42.830;24.390;2022-07-29T08:02:25;8.25;;;7.03;;
32242;SDS011;18731;42.830;24.390;2022-07-29T08:04:50;8.48;;;7.47;;
32242;SDS011;18731;42.830;24.390;2022-07-29T08:07:16;14.65;;;7.22;;
32242;SDS011;18731;42.830;24.390;2022-07-29T08:09:42;9.75;;;7.43;;
32242;SDS011;18731;42.830;24.390;2022-07-29T08:12:07;11.05;;;6.72;;
32242;SDS011;18731;42.830;24.390;2022-07-29T08:14:35;10.85;;;7.30;;
32242;SDS011;18731;42.830;24.390;2022-07-29T08:17:03;7.60;;;6.90;;
32242;SDS011;18731;42.830;24.390;2022-07-29T08:19:29;10.50;;;7.57;;
32242;SDS011;18731;42.830;24.390;2022-07-29T08:22:00;12.30;;;7.20;;
32242;SDS011;18731;42.830;24.390;2022-07-29T08:24:25;8.63;;;6.80;;
32242;SDS011;18731;42.830;24.390;2022-07-29T08:27:11;7.60;;;5.20;;
32242;SDS011;18731;42.830;24.390;2022-07-29T08:29:41;7.03;;;5.47;;
32242;SDS011;18731;42.830;24.390;2022-07-29T08:32:06;12.13;;;5.20;;
32242;SDS011;18731;42.830;24.390;2022-07-29T08:34:32;8.30;;;5.50;;
32242;SDS011;18731;42.830;24.390;2022-07-29T08:36:59;5.82;;;5.22;;
32242;SDS011;18731;42.830;24.390;2022-07-29T08:39:24;10.80;;;4.97;;
32242;SDS011;18731;42.830;24.390;2022-07-29T08:41:54;7.40;;;5.55;;
32242;SDS011;18731;42.830;24.390;2022-07-29T08:44:21;5.50;;;4.93;;
32242;SDS011;18731;42.830;24.390;2022-07-29T08:46:49;6.50;;;4.75;;
32242;SDS011;18731;42.830;24.390;2022-07-29T08:49:15;5.65;;;5.00;;
32242;SDS011;18731;42.830;24.390;2022-07-29T08:51:42;5.65;;;5.15;;
32242;SDS011;18731;42.830;24.390;2022-07-29T08:54:09;9.65;;;4.93;;
32242;SDS011;18731;42.830;24.390;2022-07-29T08:56:35;8.45;;;5.10;;
32242;SDS011;18731;42.830;24.390;2022-07-29T08:59:04;7.10;;;5.20;;
32242;SDS011;18731;42.830;24.390;2022-07-29T09:01:34;8.13;;;5.00;;
32242;SDS011;18731;42.830;24.390;2022-07-29T09:04:05;9.55;;;4.78;;
32242;SDS011;18731;42.830;24.390;2022-07-29T09:06:37;5.10;;;4.47;;
32242;SDS011;18731;42.830;24.390;2022-07-29T09:09:07;7.20;;;5.20;;
32242;SDS011;18731;42.830;24.390;2022-07-29T09:11:36;8.68;;;4.85;;
32242;SDS011;18731;42.830;24.390;2022-07-29T09:14:02;9.70;;;5.07;;
32242;SDS011;18731;42.830;24.390;2022-07-29T09:16:45;6.47;;;5.00;;
32242;SDS011;18731;42.830;24.390;2022-07-29T09:19:22;7.57;;;4.93;;
32242;SDS011;18731;42.830;24.390;2022-07-29T09:21:55;8.23;;;5.30;;
32242;SDS011;18731;42.830;24.390;2022-07-29T09:24:24;7.40;;;4.68;;
32242;SDS011;18731;42.830;24.390;2022-07-29T09:27:25;13.40;;;5.00;;
32242;SDS011;18731;42.830;24.390;2022-07-29T09:30:13;5.57;;;4.72;;
32242;SDS011;18731;42.830;24.390;2022-07-29T09:32:55;5.22;;;4.72;;
32242;SDS011;18731;42.830;24.390;2022-07-29T09:35:24;7.13;;;4.65;;
32242;SDS011;18731;42.830;24.390;2022-07-29T09:37:51;9.00;;;4.75;;
32242;SDS011;18731;42.830;24.390;2022-07-29T09:40:19;7.03;;;4.72;;
32242;SDS011;18731;42.830;24.390;2022-07-29T09:42:47;5.63;;;5.05;;
32242;SDS011;18731;42.830;24.390;2022-07-29T09:45:25;7.35;;;4.95;;
32242;SDS011;18731;42.830;24.390;2022-07-29T09:47:52;9.13;;;5.15;;
32242;SDS011;18731;42.830;24.390;2022-07-29T09:50:19;6.57;;;5.30;;
32242;SDS011;18731;42.830;24.390;2022-07-29T09:52:49;6.22;;;5.10;;
32242;SDS011;18731;42.830;24.390;2022-07-29T09:55:17;7.30;;;5.10;;
32242;SDS011;18731;42.830;24.390;2022-07-29T09:57:47;5.18;;;4.68;;
32242;SDS011;18731;42.830;24.390;2022-07-29T10:00:13;6.43;;;4.65;;
32242;SDS011;18731;42.830;24.390;2022-07-29T10:02:43;5.72;;;5.05;;
32242;SDS011;18731;42.830;24.390;2022-07-29T10:05:21;7.60;;;4.55;;
32242;SDS011;18731;42.830;24.390;2022-07-29T10:07:56;5.22;;;4.70;;
32242;SDS011;18731;42.830;24.390;2022-07-29T10:10:30;6.97;;;5.60;;
32242;SDS011;18731;42.830;24.390;2022-07-29T10:13:10;8.55;;;5.93;;
32242;SDS011;18731;42.830;24.390;2022-07-29T10:15:38;5.78;;;5.18;;
32242;SDS011;18731;42.830;24.390;2022-07-29T10:18:12;5.55;;;5.03;;
32242;SDS011;18731;42.830;24.390;2022-07-29T10:20:39;6.05;;;5.32;;
32242;SDS011;18731;42.830;24.390;2022-07-29T10:23:09;9.18;;;5.57;;
32242;SDS011;18731;42.830;24.390;2022-07-29T10:25:38;8.35;;;5.63;;
32242;SDS011;18731;42.830;24.390;2022-07-29T10:28:05;11.68;;;6.40;;
32242;SDS011;18731;42.830;24.390;2022-07-29T10:30:34;8.32;;;6.10;;
32242;SDS011;18731;42.830;24.390;2022-07-29T10:38:58;9.63;;;6.40;;
32242;SDS011;18731;42.830;24.390;2022-07-29T10:44:49;6.15;;;5.55;;
32242;SDS011;18731;42.830;24.390;2022-07-29T10:47:34;10.57;;;6.07;;
32242;SDS011;18731;42.830;24.390;2022-07-29T10:50:05;6.00;;;5.43;;
32242;SDS011;18731;42.830;24.390;2022-07-29T10:55:30;6.90;;;5.97;;
32242;SDS011;18731;42.830;24.390;2022-07-29T10:58:11;7.10;;;5.78;;
32242;SDS011;18731;42.830;24.390;2022-07-29T11:00:38;8.10;;;5.82;;
32242;SDS011;18731;42.830;24.390;2022-07-29T11:03:04;6.80;;;5.97;;
32242;SDS011;18731;42.830;24.390;2022-07-29T11:08:24;6.78;;;5.75;;
32242;SDS011;18731;42.830;24.390;2022-07-29T11:10:51;9.18;;;5.78;;
32242;SDS011;18731;42.830;24.390;2022-07-29T11:16:11;7.95;;;5.57;;
32242;SDS011;18731;42.830;24.390;2022-07-29T11:19:12;6.72;;;6.03;;
32242;SDS011;18731;42.830;24.390;2022-07-29T11:21:42;6.60;;;6.00;;
32242;SDS011;18731;42.830;24.390;2022-07-29T11:24:20;7.32;;;5.63;;
32242;SDS011;18731;42.830;24.390;2022-07-29T11:30:15;7.38;;;6.32;;
32242;SDS011;18731;42.830;24.390;2022-07-29T11:32:43;9.05;;;6.72;;
32242;SDS011;18731;42.830;24.390;2022-07-29T11:37:47;10.10;;;6.82;;
32242;SDS011;18731;42.830;24.390;2022-07-29T11:43:48;8.90;;;7.43;;
32242;SDS011;18731;42.830;24.390;2022-07-29T11:46:17;8.45;;;7.40;;
32242;SDS011;18731;42.830;24.390;2022-07-29T11:49:03;11.18;;;7.40;;
32242;SDS011;18731;42.830;24.390;2022-07-29T11:51:51;11.93;;;8.15;;
32242;SDS011;18731;42.830;24.390;2022-07-29T11:54:22;12.40;;;7.68;;
32242;SDS011;18731;42.830;24.390;2022-07-29T11:56:51;16.75;;;7.50;;
32242;SDS011;18731;42.830;24.390;2022-07-29T11:59:17;8.77;;;7.57;;
32242;SDS011;18731;42.830;24.390;2022-07-29T12:02:00;8.82;;;7.28;;
32242;SDS011;18731;42.830;24.390;2022-07-29T12:04:25;10.43;;;7.43;;
32242;SDS011;18731;42.830;24.390;2022-07-29T12:06:53;9.35;;;7.40;;
32242;SDS011;18731;42.830;24.390;2022-07-29T12:09:19;10.65;;;7.90;;
32242;SDS011;18731;42.830;24.390;2022-07-29T12:11:57;17.42;;;7.35;;
32242;SDS011;18731;42.830;24.390;2022-07-29T12:14:28;9.93;;;7.68;;
32242;SDS011;18731;42.830;24.390;2022-07-29T12:16:55;10.43;;;7.38;;
32242;SDS011;18731;42.830;24.390;2022-07-29T12:19:21;8.55;;;7.15;;
32242;SDS011;18731;42.830;24.390;2022-07-29T12:21:48;8.95;;;7.45;;
32242;SDS011;18731;42.830;24.390;2022-07-29T12:24:19;9.25;;;7.45;;
32242;SDS011;18731;42.830;24.390;2022-07-29T12:26:53;9.10;;;7.63;;
32242;SDS011;18731;42.830;24.390;2022-07-29T12:29:19;10.38;;;7.30;;
32242;SDS011;18731;42.830;24.390;2022-07-29T12:31:45;8.90;;;7.28;;
32242;SDS011;18731;42.830;24.390;2022-07-29T12:34:15;11.70;;;7.13;;
32242;SDS011;18731;42.830;24.390;2022-07-29T12:36:44;11.23;;;7.75;;
32242;SDS011;18731;42.830;24.390;2022-07-29T12:39:09;10.30;;;7.35;;
32242;SDS011;18731;42.830;24.390;2022-07-29T12:41:36;13.77;;;7.50;;
32242;SDS011;18731;42.830;24.390;2022-07-29T12:44:02;8.23;;;6.85;;
32242;SDS011;18731;42.830;24.390;2022-07-29T12:46:29;14.10;;;7.35;;
32242;SDS011;18731;42.830;24.390;2022-07-29T12:48:56;10.93;;;7.40;;
32242;SDS011;18731;42.830;24.390;2022-07-29T12:51:29;8.35;;;7.40;;
32242;SDS011;18731;42.830;24.390;2022-07-29T12:54:30;13.27;;;7.32;;
32242;SDS011;18731;42.830;24.390;2022-07-29T12:56:57;10.32;;;7.93;;
32242;SDS011;18731;42.830;24.390;2022-07-29T12:59:26;8.30;;;7.18;;
32242;SDS011;18731;42.830;24.390;2022-07-29T13:01:52;12.45;;;7.47;;
32242;SDS011;18731;42.830;24.390;2022-07-29T13:04:24;9.13;;;7.28;;
32242;SDS011;18731;42.830;24.390;2022-07-29T13:06:58;8.85;;;7.20;;
32242;SDS011;18731;42.830;24.390;2022-07-29T13:09:41;10.90;;;7.15;;
32242;SDS011;18731;42.830;24.390;2022-07-29T13:12:14;15.82;;;8.10;;
32242;SDS011;18731;42.830;24.390;2022-07-29T13:14:41;11.55;;;7.35;;
32242;SDS011;18731;42.830;24.390;2022-07-29T13:17:11;14.05;;;7.43;;
32242;SDS011;18731;42.830;24.390;2022-07-29T13:19:39;8.02;;;7.32;;
32242;SDS011;18731;42.830;24.390;2022-07-29T13:22:11;9.07;;;7.50;;
32242;SDS011;18731;42.830;24.390;2022-07-29T13:24:58;11.88;;;7.20;;
32242;SDS011;18731;42.830;24.390;2022-07-29T13:27:31;16.58;;;7.90;;
32242;SDS011;18731;42.830;24.390;2022-07-29T13:29:59;9.07;;;7.65;;
32242;SDS011;18731;42.830;24.390;2022-07-29T13:32:26;10.15;;;7.50;;
32242;SDS011;18731;42.830;24.390;2022-07-29T13:34:59;12.88;;;7.90;;
32242;SDS011;18731;42.830;24.390;2022-07-29T13:37:30;12.25;;;7.50;;
32242;SDS011;18731;42.830;24.390;2022-07-29T13:40:01;9.73;;;7.60;;
32242;SDS011;18731;42.830;24.390;2022-07-29T13:42:31;9.25;;;7.65;;
32242;SDS011;18731;42.830;24.390;2022-07-29T13:44:58;14.00;;;7.90;;
32242;SDS011;18731;42.830;24.390;2022-07-29T13:47:24;12.00;;;7.72;;
32242;SDS011;18731;42.830;24.390;2022-07-29T13:49:54;13.40;;;7.00;;
32242;SDS011;18731;42.830;24.390;2022-07-29T13:52:23;10.98;;;7.38;;
32242;SDS011;18731;42.830;24.390;2022-07-29T13:54:50;9.20;;;7.15;;
32242;SDS011;18731;42.830;24.390;2022-07-29T13:57:16;11.45;;;7.78;;
32242;SDS011;18731;42.830;24.390;2022-07-29T13:59:42;14.93;;;7.10;;
32242;SDS011;18731;42.830;24.390;2022-07-29T14:02:08;11.63;;;6.75;;
32242;SDS011;18731;42.830;24.390;2022-07-29T14:04:35;9.60;;;7.35;;
32242;SDS011;18731;42.830;24.390;2022-07-29T14:07:01;12.65;;;6.70;;
32242;SDS011;18731;42.830;24.390;2022-07-29T14:09:27;14.20;;;7.40;;
32242;SDS011;18731;42.830;24.390;2022-07-29T14:11:53;10.38;;;7.32;;
32242;SDS011;18731;42.830;24.390;2022-07-29T14:14:27;17.17;;;7.55;;
32242;SDS011;18731;42.830;24.390;2022-07-29T14:16:54;11.13;;;7.38;;
32242;SDS011;18731;42.830;24.390;2022-07-29T14:19:21;10.98;;;7.32;;
32242;SDS011;18731;42.830;24.390;2022-07-29T14:21:50;10.52;;;7.78;;
32242;SDS011;18731;42.830;24.390;2022-07-29T14:24:24;13.65;;;7.88;;
32242;SDS011;18731;42.830;24.390;2022-07-29T14:26:50;8.80;;;7.35;;
32242;SDS011;18731;42.830;24.390;2022-07-29T14:29:16;12.68;;;6.88;;
32242;SDS011;18731;42.830;24.390;2022-07-29T14:31:41;10.95;;;7.78;;
32242;SDS011;18731;42.830;24.390;2022-07-29T14:34:08;9.98;;;7.15;;
32242;SDS011;18731;42.830;24.390;2022-07-29T14:36:34;13.45;;;7.28;;
32242;SDS011;18731;42.830;24.390;2022-07-29T14:39:00;10.63;;;7.80;;
32242;SDS011;18731;42.830;24.390;2022-07-29T14:41:28;13.18;;;7.53;;
32242;SDS011;18731;42.830;24.390;2022-07-29T14:43:55;9.07;;;7.18;;
32242;SDS011;18731;42.830;24.390;2022-07-29T14:46:21;9.10;;;7.30;;
32242;SDS011;18731;42.830;24.390;2022-07-29T14:48:47;10.52;;;7.35;;
32242;SDS011;18731;42.830;24.390;2022-07-29T14:51:13;9.45;;;7.35;;
32242;SDS011;18731;42.830;24.390;2022-07-29T14:53:38;11.15;;;8.18;;
32242;SDS011;18731;42.830;24.390;2022-07-29T14:56:04;8.50;;;7.57;;
32242;SDS011;18731;42.830;24.390;2022-07-29T14:58:30;9.10;;;6.82;;
32242;SDS011;18731;42.830;24.390;2022-07-29T15:00:55;12.82;;;8.00;;
32242;SDS011;18731;42.830;24.390;2022-07-29T15:03:21;14.68;;;8.10;;
32242;SDS011;18731;42.830;24.390;2022-07-29T15:05:46;12.05;;;7.43;;
32242;SDS011;18731;42.830;24.390;2022-07-29T15:08:13;13.88;;;7.97;;
32242;SDS011;18731;42.830;24.390;2022-07-29T15:10:41;13.48;;;8.27;;
32242;SDS011;18731;42.830;24.390;2022-07-29T15:13:07;16.33;;;8.77;;
32242;SDS011;18731;42.830;24.390;2022-07-29T15:15:33;14.95;;;8.15;;
32242;SDS011;18731;42.830;24.390;2022-07-29T15:18:00;13.85;;;7.82;;
32242;SDS011;18731;42.830;24.390;2022-07-29T15:20:28;19.08;;;8.30;;
32242;SDS011;18731;42.830;24.390;2022-07-29T15:22:55;13.65;;;8.70;;
32242;SDS011;18731;42.830;24.390;2022-07-29T15:25:25;10.05;;;8.55;;
32242;SDS011;18731;42.830;24.390;2022-07-29T15:27:51;14.57;;;9.02;;
32242;SDS011;18731;42.830;24.390;2022-07-29T15:30:21;15.63;;;9.02;;
32242;SDS011;18731;42.830;24.390;2022-07-29T15:32:46;17.55;;;9.30;;
32242;SDS011;18731;42.830;24.390;2022-07-29T15:35:12;14.95;;;9.00;;
32242;SDS011;18731;42.830;24.390;2022-07-29T15:37:38;11.05;;;7.97;;
32242;SDS011;18731;42.830;24.390;2022-07-29T15:40:05;15.85;;;8.27;;
32242;SDS011;18731;42.830;24.390;2022-07-29T15:42:34;10.55;;;7.80;;
32242;SDS011;18731;42.830;24.390;2022-07-29T15:45:11;15.02;;;8.68;;
32242;SDS011;18731;42.830;24.390;2022-07-29T15:47:37;16.55;;;8.77;;
32242;SDS011;18731;42.830;24.390;2022-07-29T15:50:03;11.25;;;8.73;;
32242;SDS011;18731;42.830;24.390;2022-07-29T15:52:30;12.73;;;8.43;;
32242;SDS011;18731;42.830;24.390;2022-07-29T15:54:56;14.13;;;8.77;;
32242;SDS011;18731;42.830;24.390;2022-07-29T15:57:22;14.02;;;8.65;;
32242;SDS011;18731;42.830;24.390;2022-07-29T15:59:53;15.52;;;9.10;;
32242;SDS011;18731;42.830;24.390;2022-07-29T16:02:19;11.77;;;8.40;;
32242;SDS011;18731;42.830;24.390;2022-07-29T16:04:44;18.88;;;7.85;;
32242;SDS011;18731;42.830;24.390;2022-07-29T16:07:14;18.48;;;7.80;;
32242;SDS011;18731;42.830;24.390;2022-07-29T16:09:54;12.07;;;8.05;;
32242;SDS011;18731;42.830;24.390;2022-07-29T16:12:22;10.82;;;8.45;;
32242;SDS011;18731;42.830;24.390;2022-07-29T16:14:48;9.15;;;8.23;;
32242;SDS011;18731;42.830;24.390;2022-07-29T16:17:18;11.45;;;8.23;;
32242;SDS011;18731;42.830;24.390;2022-07-29T16:19:47;13.30;;;8.70;;
32242;SDS011;18731;42.830;24.390;2022-07-29T16:22:13;12.55;;;8.90;;
32242;SDS011;18731;42.830;24.390;2022-07-29T16:24:40;13.13;;;8.40;;
32242;SDS011;18731;42.830;24.390;2022-07-29T16:27:13;17.15;;;9.07;;
32242;SDS011;18731;42.830;24.390;2022-07-29T16:29:41;13.40;;;8.93;;
32242;SDS011;18731;42.830;24.390;2022-07-29T16:32:10;19.95;;;9.43;;
32242;SDS011;18731;42.830;24.390;2022-07-29T16:34:36;13.48;;;9.18;;
32242;SDS011;18731;42.830;24.390;2022-07-29T16:37:02;10.82;;;8.60;;
32242;SDS011;18731;42.830;24.390;2022-07-29T16:39:27;10.93;;;8.98;;
32242;SDS011;18731;42.830;24.390;2022-07-29T16:41:53;15.00;;;8.52;;
32242;SDS011;18731;42.830;24.390;2022-07-29T16:44:19;14.18;;;9.20;;
32242;SDS011;18731;42.830;24.390;2022-07-29T16:46:44;13.45;;;8.57;;
32242;SDS011;18731;42.830;24.390;2022-07-29T16:49:24;12.77;;;10.27;;
32242;SDS011;18731;42.830;24.390;2022-07-29T16:52:31;26.60;;;18.90;;
32242;SDS011;18731;42.830;24.390;2022-07-29T16:54:57;240.10;;;110.40;;
32242;SDS011;18731;42.830;24.390;2022-07-29T16:57:23;115.60;;;56.83;;
32242;SDS011;18731;42.830;24.390;2022-07-29T16:59:49;39.78;;;22.90;;
32242;SDS011;18731;42.830;24.390;2022-07-29T17:02:15;29.63;;;22.30;;
32242;SDS011;18731;42.830;24.390;2022-07-29T17:04:42;17.13;;;11.13;;
32242;SDS011;18731;42.830;24.390;2022-07-29T17:07:08;24.48;;;18.90;;
32242;SDS011;18731;42.830;24.390;2022-07-29T17:09:34;38.22;;;21.95;;
32242;SDS011;18731;42.830;24.390;2022-07-29T17:11:59;17.77;;;12.38;;
32242;SDS011;18731;42.830;24.390;2022-07-29T17:14:27;23.23;;;12.40;;
32242;SDS011;18731;42.830;24.390;2022-07-29T17:16:56;77.05;;;47.13;;
32242;SDS011;18731;42.830;24.390;2022-07-29T17:19:27;60.38;;;40.67;;
32242;SDS011;18731;42.830;24.390;2022-07-29T17:21:54;398.23;;;325.90;;
32242;SDS011;18731;42.830;24.390;2022-07-29T17:24:19;630.97;;;452.77;;
32242;SDS011;18731;42.830;24.390;2022-07-29T17:26:45;120.10;;;81.40;;
32242;SDS011;18731;42.830;24.390;2022-07-29T17:29:11;64.85;;;43.50;;
32242;SDS011;18731;42.830;24.390;2022-07-29T17:31:37;305.17;;;220.57;;
32242;SDS011;18731;42.830;24.390;2022-07-29T17:34:04;247.23;;;176.93;;
32242;SDS011;18731;42.830;24.390;2022-07-29T17:36:30;509.83;;;372.30;;
32242;SDS011;18731;42.830;24.390;2022-07-29T17:38:58;352.45;;;239.30;;
32242;SDS011;18731;42.830;24.390;2022-07-29T17:41:29;492.30;;;346.70;;
32242;SDS011;18731;42.830;24.390;2022-07-29T17:43:58;198.18;;;112.90;;
32242;SDS011;18731;42.830;24.390;2022-07-29T17:46:24;49.70;;;31.05;;
32242;SDS011;18731;42.830;24.390;2022-07-29T17:48:54;40.30;;;28.25;;
32242;SDS011;18731;42.830;24.390;2022-07-29T17:51:24;32.90;;;23.20;;
32242;SDS011;18731;42.830;24.390;2022-07-29T17:53:50;21.20;;;14.15;;
32242;SDS011;18731;42.830;24.390;2022-07-29T17:56:19;23.00;;;11.25;;
32242;SDS011;18731;42.830;24.390;2022-07-29T17:58:45;12.52;;;9.82;;
32242;SDS011;18731;42.830;24.390;2022-07-29T18:01:12;14.23;;;9.93;;
32242;SDS011;18731;42.830;24.390;2022-07-29T18:03:39;15.63;;;9.45;;